Time;durP1;ratioP1;P1;durP2;ratioP2;P2;SDS_P1;SDS_P2;PMS_P1;PMS_P2;Temp;Humidity;BMP_temperature;BMP_pressure;BME280_temperature;BME280_humidity;BME280_pressure;Samples;Min_cycle;Max_cycle;Signal;HPM_P1;HPM_P2
2021/05/13 00:00:24;;;;;;;7.73;7.23;;;;;;;8.69;100.00;94934.03;5020577;28;20282;-70
2021/05/13 00:02:51;;;;;;;7.97;7.47;;;;;;;8.69;100.00;94943.72;5014476;28;20219;-69
2021/05/13 00:05:19;;;;;;;9.93;9.17;;;;;;;8.70;100.00;94940.09;5017007;28;20570;-69
2021/05/13 00:07:46;;;;;;;9.47;8.77;;;;;;;8.72;100.00;94930.19;5017342;28;20243;-69
2021/05/13 00:10:18;;;;;;;9.83;9.03;;;;;;;8.73;100.00;94929.19;5014861;28;20227;-69
2021/05/13 00:12:50;;;;;;;16.17;9.47;;;;;;;8.80;100.00;94930.88;5019554;28;20278;-69
2021/05/13 00:15:20;;;;;;;8.60;8.00;;;;;;;8.76;100.00;94918.25;5005135;28;20275;-69
2021/05/13 00:17:47;;;;;;;8.43;7.83;;;;;;;8.70;100.00;94919.84;5006386;28;20232;-70
2021/05/13 00:20:19;;;;;;;8.37;7.67;;;;;;;8.70;100.00;94919.84;5013098;28;20255;-69
2021/05/13 00:22:46;;;;;;;9.10;8.50;;;;;;;8.67;100.00;94914.16;5021780;28;20277;-69
2021/05/13 00:25:15;;;;;;;7.60;7.00;;;;;;;8.66;100.00;94908.06;5018389;28;20647;-69
2021/05/13 00:27:42;;;;;;;9.33;8.73;;;;;;;8.64;100.00;94904.81;5013906;28;20271;-69
2021/05/13 00:30:12;;;;;;;9.07;8.47;;;;;;;8.69;100.00;94910.34;5026851;28;20243;-69
2021/05/13 00:32:40;;;;;;;8.73;7.73;;;;;;;8.68;100.00;94900.00;5014530;28;20505;-69
2021/05/13 00:35:10;;;;;;;8.37;7.67;;;;;;;8.68;100.00;94900.00;5017788;28;20224;-69
2021/05/13 00:37:37;;;;;;;10.30;9.40;;;;;;;8.67;100.00;94893.91;5011907;28;20345;-69
2021/05/13 00:40:07;;;;;;;11.30;10.33;;;;;;;8.64;100.00;94888.25;5020228;28;20306;-69
2021/05/13 00:42:34;;;;;;;9.53;8.83;;;;;;;8.68;100.00;94895.53;5016508;28;20239;-69
2021/05/13 00:45:03;;;;;;;9.33;8.53;;;;;;;8.68;100.00;94895.53;5014081;28;20231;-69
2021/05/13 00:47:34;;;;;;;9.87;9.17;;;;;;;8.64;100.00;94899.56;5014640;28;20255;-69
2021/05/13 00:50:01;;;;;;;10.67;9.80;;;;;;;8.61;100.00;94888.63;5015761;28;20310;-69
2021/05/13 00:52:30;;;;;;;10.07;9.17;;;;;;;8.59;100.00;94895.88;5020662;28;20231;-70
2021/05/13 00:54:57;;;;;;;7.17;6.67;;;;;;;8.61;100.00;94886.81;5012286;28;20306;-69
2021/05/13 00:57:26;;;;;;;7.53;7.03;;;;;;;8.61;100.00;94886.81;5007720;28;20259;-69
2021/05/13 00:59:58;;;;;;;6.93;6.47;;;;;;;8.61;100.00;94878.91;5017173;28;20220;-69
2021/05/13 01:02:26;;;;;;;7.33;6.80;;;;;;;8.62;100.00;94879.72;5021790;28;20502;-69
2021/05/13 01:04:54;;;;;;;8.50;7.90;;;;;;;8.64;100.00;94875.91;5025412;28;20276;-70
2021/05/13 01:07:21;;;;;;;9.03;8.27;;;;;;;8.66;100.00;94871.25;5011986;28;20636;-70
2021/05/13 01:09:49;;;;;;;8.17;7.57;;;;;;;8.67;100.00;94870.25;5016963;28;20267;-69
2021/05/13 01:12:17;;;;;;;10.03;9.03;;;;;;;8.62;100.00;94864.75;5015237;28;20236;-69
2021/05/13 01:14:47;;;;;;;8.53;7.77;;;;;;;8.60;100.00;94856.25;5020180;28;20709;-70
2021/05/13 01:17:23;;;;;;;9.87;9.20;;;;;;;8.52;100.00;94854.56;5017447;28;20335;-69
2021/05/13 01:19:56;;;;;;;8.00;7.40;;;;;;;8.50;100.00;94855.75;5023916;28;20440;-69
2021/05/13 01:22:25;;;;;;;8.43;7.73;;;;;;;8.43;100.00;94852.28;5012416;28;20224;-69
2021/05/13 01:24:53;;;;;;;8.60;8.00;;;;;;;8.42;100.00;94859.34;5013341;28;20235;-69
2021/05/13 01:27:21;;;;;;;9.30;8.70;;;;;;;8.41;100.00;94864.78;5020289;28;20228;-69
2021/05/13 01:29:49;;;;;;;8.37;7.77;;;;;;;8.37;100.00;94866.16;5016456;28;20216;-69
2021/05/13 01:32:18;;;;;;;6.60;6.20;;;;;;;8.32;100.00;94869.34;5020118;28;20315;-69
2021/05/13 01:34:46;;;;;;;8.80;7.83;;;;;;;8.29;100.00;94861.81;5023359;28;20267;-69
2021/05/13 01:37:14;;;;;;;10.50;9.60;;;;;;;8.23;100.00;94866.03;5023989;28;20327;-69
2021/05/13 01:39:42;;;;;;;7.70;7.00;;;;;;;8.27;100.00;94866.47;5025597;28;20273;-69
2021/05/13 01:42:13;;;;;;;10.10;9.40;;;;;;;8.31;100.00;94856.38;5008237;28;20676;-69
2021/05/13 01:44:43;;;;;;;10.07;9.23;;;;;;;8.30;100.00;94854.75;5025196;28;20216;-69
2021/05/13 01:47:11;;;;;;;10.43;9.63;;;;;;;8.25;100.00;94855.34;5021488;28;20291;-68
2021/05/13 01:49:39;;;;;;;8.60;7.77;;;;;;;8.21;100.00;94852.25;5023710;28;20226;-68
2021/05/13 01:52:07;;;;;;;8.63;8.03;;;;;;;8.22;100.00;94846.00;5022233;28;20224;-70
2021/05/13 01:54:34;;;;;;;9.73;9.03;;;;;;;8.20;100.00;94850.63;5011854;28;20228;-69
2021/05/13 01:57:03;;;;;;;7.40;6.90;;;;;;;8.19;100.00;94856.88;5018987;28;20412;-69
2021/05/13 01:59:31;;;;;;;9.30;8.60;;;;;;;8.17;100.00;94844.94;5009812;28;20219;-69
2021/05/13 02:01:59;;;;;;;10.50;9.73;;;;;;;8.19;100.00;94843.75;5008806;28;20227;-69
2021/05/13 02:04:28;;;;;;;8.53;7.83;;;;;;;8.18;100.00;94847.38;5018300;28;20224;-69
2021/05/13 02:06:56;;;;;;;9.00;8.23;;;;;;;8.15;100.00;94847.78;5013967;28;20303;-69
2021/05/13 02:09:24;;;;;;;9.13;8.43;;;;;;;8.13;100.00;94844.50;5049554;28;20311;-69
2021/05/13 02:11:52;;;;;;;8.00;7.23;;;;;;;8.14;100.00;94846.16;5021285;28;20222;-69
2021/05/13 02:14:20;;;;;;;9.77;8.97;;;;;;;8.11;100.00;94845.69;5012420;28;20231;-69
2021/05/13 02:16:47;;;;;;;8.07;7.57;;;;;;;8.12;100.00;94842.06;5011989;28;20321;-69
2021/05/13 02:19:15;;;;;;;9.07;8.47;;;;;;;8.08;100.00;94844.25;5017287;28;20227;-69
2021/05/13 02:21:42;;;;;;;8.80;8.10;;;;;;;8.05;100.00;94835.94;5020636;28;20254;-69
2021/05/13 02:24:10;;;;;;;9.43;8.60;;;;;;;8.08;100.00;94840.81;5014533;28;20741;-69
2021/05/13 02:26:37;;;;;;;9.10;8.27;;;;;;;8.09;100.00;94837.19;5024503;28;20266;-69
2021/05/13 02:29:04;;;;;;;7.90;7.40;;;;;;;8.06;100.00;94837.56;5004566;28;20679;-69
2021/05/13 02:31:33;;;;;;;10.77;9.70;;;;;;;8.03;100.00;94836.13;5009365;28;20314;-69
2021/05/13 02:34:00;;;;;;;9.17;8.47;;;;;;;8.03;100.00;94835.31;5001963;28;20225;-69
2021/05/13 02:36:27;;;;;;;9.07;7.53;;;;;;;8.04;100.00;94840.38;5005534;28;20295;-69
2021/05/13 02:38:54;;;;;;;10.10;9.40;;;;;;;8.03;100.00;94833.50;4993935;28;20307;-69
2021/05/13 02:41:22;;;;;;;7.27;6.77;;;;;;;8.07;100.00;94839.19;5017258;28;20220;-69
2021/05/13 02:43:49;;;;;;;7.70;7.20;;;;;;;8.09;100.00;94827.50;5025305;28;20327;-69
2021/05/13 02:46:16;;;;;;;7.47;6.97;;;;;;;8.11;100.00;94830.75;5023872;28;20235;-69
2021/05/13 02:48:44;;;;;;;7.90;7.40;;;;;;;8.10;100.00;94839.63;5009530;28;20230;-69
2021/05/13 02:51:12;;;;;;;8.13;7.47;;;;;;;8.09;100.00;94832.75;5014962;28;20251;-69
2021/05/13 02:53:39;;;;;;;8.77;7.80;;;;;;;8.10;100.00;94834.38;5023616;28;20717;-68
2021/05/13 02:56:06;;;;;;;8.53;7.83;;;;;;;8.11;100.00;94830.75;5011798;28;20755;-69
2021/05/13 02:58:34;;;;;;;8.57;7.97;;;;;;;8.09;100.00;94829.31;5023253;28;20282;-69
2021/05/13 03:01:11;;;;;;;8.47;7.77;;;;;;;8.07;100.00;94828.69;5019323;28;20223;-69
2021/05/13 03:03:39;;;;;;;10.57;9.67;;;;;;;7.99;100.00;94824.38;5016591;28;20227;-69
2021/05/13 03:06:07;;;;;;;9.57;8.67;;;;;;;7.90;100.00;94818.44;5017597;28;20242;-70
2021/05/13 03:08:35;;;;;;;8.37;7.73;;;;;;;7.90;100.00;94820.25;5012198;28;20226;-69
2021/05/13 03:11:02;;;;;;;9.37;8.67;;;;;;;7.83;100.00;94816.72;5021866;28;20678;-69
2021/05/13 03:13:30;;;;;;;10.07;9.13;;;;;;;7.77;100.00;94812.22;5011400;28;20756;-69
2021/05/13 03:15:57;;;;;;;7.80;7.20;;;;;;;7.73;100.00;94810.97;5018738;28;20555;-69
2021/05/13 03:18:27;;;;;;;7.83;7.23;;;;;;;7.70;100.00;94813.00;5019069;28;20219;-69
2021/05/13 03:20:59;;;;;;;7.57;6.97;;;;;;;7.68;100.00;94814.16;5011724;28;20739;-68
2021/05/13 03:23:32;;;;;;;9.97;8.90;;;;;;;7.62;100.00;94813.09;5022403;28;20247;-67
2021/05/13 03:26:01;;;;;;;6.13;5.73;;;;;;;7.63;100.00;94821.78;5020722;28;20529;-67
2021/05/13 03:28:28;;;;;;;7.73;7.30;;;;;;;7.61;100.00;94824.59;5021092;28;20650;-67
2021/05/13 03:30:56;;;;;;;7.63;7.03;;;;;;;7.54;100.00;94818.47;5013694;28;20250;-68
2021/05/13 03:33:24;;;;;;;8.00;7.33;;;;;;;7.56;100.00;94816.47;5020031;28;20227;-68
2021/05/13 03:35:51;;;;;;;6.63;6.13;;;;;;;7.57;100.00;94818.09;5019024;28;20309;-68
2021/05/13 03:38:18;;;;;;;7.33;6.80;;;;;;;7.65;100.00;94820.59;5022295;28;20241;-67
2021/05/13 03:40:46;;;;;;;8.03;7.33;;;;;;;7.65;100.00;94812.72;5016413;28;20239;-68
2021/05/13 03:43:14;;;;;;;7.70;7.10;;;;;;;7.65;100.00;94819.78;5016942;28;20227;-67
2021/05/13 03:45:41;;;;;;;7.60;7.10;;;;;;;7.63;100.00;94816.53;5015590;28;20773;-68
2021/05/13 03:48:09;;;;;;;10.13;9.30;;;;;;;7.59;100.00;94817.91;5024225;28;20226;-68
2021/05/13 03:50:38;;;;;;;11.47;8.23;;;;;;;7.57;100.00;94810.22;5016927;28;20231;-68
2021/05/13 03:53:07;;;;;;;7.83;7.27;;;;;;;7.64;100.00;94807.66;5017365;28;20258;-68
2021/05/13 03:55:34;;;;;;;9.47;8.60;;;;;;;7.62;100.00;94807.84;5015001;28;20234;-67
2021/05/13 03:58:05;;;;;;;8.73;8.10;;;;;;;7.61;100.00;94805.41;5014106;28;20240;-68
2021/05/13 04:00:40;;;;;;;8.67;7.90;;;;;;;7.58;100.00;94809.22;5016893;28;20223;-68
2021/05/13 04:03:07;;;;;;;8.70;8.10;;;;;;;7.59;100.00;94800.34;5017350;28;20230;-68
2021/05/13 04:05:35;;;;;;;9.13;8.27;;;;;;;7.59;100.00;94802.13;5016878;28;20517;-68
2021/05/13 04:08:03;;;;;;;8.87;7.97;;;;;;;7.57;100.00;94812.03;5025386;28;20222;-67
2021/05/13 04:10:30;;;;;;;29.53;8.30;;;;;;;7.54;100.00;94801.91;5019753;28;20573;-67
2021/05/13 04:13:01;;;;;;;7.90;7.27;;;;;;;7.56;100.00;94807.78;5019232;28;20309;-67
2021/05/13 04:15:29;;;;;;;10.00;9.07;;;;;;;7.50;100.00;94809.34;5007104;28;20250;-69
2021/05/13 04:17:57;;;;;;;10.90;9.57;;;;;;;7.54;100.00;94802.72;5020921;28;20223;-67
2021/05/13 04:20:24;;;;;;;8.93;8.20;;;;;;;7.53;100.00;94800.28;5019898;28;20231;-68
2021/05/13 04:22:52;;;;;;;10.13;8.23;;;;;;;7.57;100.00;94804.97;5018784;28;20221;-67
2021/05/13 04:25:19;;;;;;;8.83;8.13;;;;;;;7.55;100.00;94801.72;5015482;28;20644;-67
2021/05/13 04:27:47;;;;;;;9.50;8.43;;;;;;;7.53;100.00;94805.53;5012580;28;20255;-67
2021/05/13 04:30:15;;;;;;;9.63;8.83;;;;;;;7.53;100.00;94803.72;5015199;28;20306;-68
2021/05/13 04:32:43;;;;;;;9.17;8.37;;;;;;;7.54;100.00;94810.59;5018246;28;20695;-67
2021/05/13 04:35:12;;;;;;;9.83;9.13;;;;;;;7.56;100.00;94800.72;5017964;28;20684;-67
2021/05/13 04:37:40;;;;;;;8.63;7.90;;;;;;;7.59;100.00;94804.75;5021705;28;20246;-68
2021/05/13 04:40:08;;;;;;;10.03;9.17;;;;;;;7.57;100.00;94797.09;5019719;28;20709;-68
2021/05/13 04:42:35;;;;;;;9.77;8.77;;;;;;;7.56;100.00;94800.72;5011539;28;20321;-67
2021/05/13 04:45:03;;;;;;;9.63;8.60;;;;;;;7.56;100.00;94802.53;5017384;28;20307;-67
2021/05/13 04:47:34;;;;;;;10.53;9.63;;;;;;;7.59;100.00;94795.09;5020333;28;20588;-67
2021/05/13 04:50:04;;;;;;;9.70;9.00;;;;;;;7.65;100.00;94804.03;5014108;28;20259;-68
2021/05/13 04:52:31;;;;;;;8.40;7.90;;;;;;;7.70;100.00;94802.47;5016094;28;20264;-67
2021/05/13 04:54:58;;;;;;;6.63;6.13;;;;;;;7.74;100.00;94795.03;5021656;28;20227;-67
2021/05/13 04:57:26;;;;;;;22.47;8.90;;;;;;;7.83;100.00;94807.03;5011568;28;20234;-68
2021/05/13 04:59:55;;;;;;;9.30;8.63;;;;;;;7.88;100.00;94803.88;5020925;28;20405;-67
2021/05/13 05:02:23;;;;;;;11.17;10.17;;;;;;;7.89;100.00;94801.03;5013548;28;20784;-68
2021/05/13 05:04:50;;;;;;;7.90;7.33;;;;;;;7.94;100.00;94797.84;5017280;28;20313;-68
2021/05/13 05:07:18;;;;;;;8.73;7.93;;;;;;;7.98;100.00;94793.84;5018639;28;20710;-67
2021/05/13 05:09:45;;;;;;;10.27;9.40;;;;;;;7.99;100.00;94790.22;5021841;28;20258;-67
2021/05/13 05:12:14;;;;;;;8.43;7.80;;;;;;;8.09;100.00;94806.47;5007260;28;20252;-68
2021/05/13 05:14:42;;;;;;;10.63;9.57;;;;;;;8.16;100.00;94796.84;5007329;28;20735;-67
2021/05/13 05:17:09;;;;;;;8.20;7.50;;;;;;;8.21;100.00;94783.91;5017105;28;20304;-67
2021/05/13 05:19:38;;;;;;;9.83;9.03;;;;;;;8.23;100.00;94797.72;5014916;28;20226;-69
2021/05/13 05:22:06;;;;;;;10.07;9.17;;;;;;;8.20;100.00;94789.38;5020054;28;20281;-68
2021/05/13 05:24:35;;;;;;;9.30;8.47;;;;;;;8.21;100.00;94789.19;5016821;28;20243;-68
2021/05/13 05:27:02;;;;;;;9.90;9.10;;;;;;;8.19;100.00;94788.56;5016357;28;20220;-68
2021/05/13 05:29:30;;;;;;;10.87;7.67;;;;;;;8.24;100.00;94783.56;5007000;28;20231;-69
2021/05/13 05:31:58;;;;;;;9.50;8.63;;;;;;;8.21;100.00;94789.19;5012697;28;20220;-67
2021/05/13 05:34:25;;;;;;;9.60;8.87;;;;;;;8.33;100.00;94791.31;5020965;28;20224;-67
2021/05/13 05:36:52;;;;;;;9.77;8.43;;;;;;;8.26;100.00;94792.06;5013201;28;20227;-68
2021/05/13 05:39:21;;;;;;;10.43;9.50;;;;;;;8.33;100.00;94791.31;5012066;28;20220;-68
2021/05/13 05:41:51;;;;;;;12.93;11.53;;;;;;;8.30;100.00;94784.59;5021217;28;20275;-67
2021/05/13 05:44:19;;;;;;;10.30;8.80;;;;;;;8.31;100.00;94788.03;5018734;28;20258;-68
2021/05/13 05:46:46;;;;;;;10.43;9.63;;;;;;;8.41;100.00;94786.75;5015466;28;20252;-68
2021/05/13 05:49:14;;;;;;;11.20;10.27;;;;;;;8.52;100.00;94788.03;5020025;28;20332;-67
2021/05/13 05:51:41;;;;;;;11.17;9.00;;;;;;;8.54;100.00;94791.28;5011631;28;20237;-68
2021/05/13 05:54:09;;;;;;;8.90;8.17;;;;;;;8.59;100.00;94791.50;5020289;28;20785;-67
2021/05/13 05:56:36;;;;;;;10.40;9.50;;;;;;;8.60;100.00;94787.88;5021654;28;20220;-67
2021/05/13 05:59:07;;;;;;;9.53;8.63;;;;;;;8.68;100.00;94784.25;5024358;28;20227;-68
2021/05/13 06:01:34;;;;;;;9.97;7.73;;;;;;;8.75;100.00;94779.84;5011083;28;20224;-67
2021/05/13 06:04:02;;;;;;;14.03;8.40;;;;;;;8.82;100.00;94784.16;5017715;28;20220;-67
2021/05/13 06:06:30;;;;;;;10.23;9.30;;;;;;;8.82;100.00;94784.16;5016313;28;20250;-68
2021/05/13 06:08:57;;;;;;;9.03;8.33;;;;;;;8.92;100.00;94785.63;5008661;28;20323;-68
2021/05/13 06:11:25;;;;;;;7.40;6.80;;;;;;;8.94;100.00;94784.41;5006915;28;20255;-68
2021/05/13 06:13:52;;;;;;;8.87;8.10;;;;;;;8.97;100.00;94783.22;5033191;28;20297;-68
2021/05/13 06:16:20;;;;;;;9.20;8.37;;;;;;;8.99;100.00;94789.91;5023142;28;20959;-67
2021/05/13 06:18:53;;;;;;;9.50;8.43;;;;;;;9.01;100.00;94789.72;5010740;28;20220;-68
2021/05/13 06:21:21;;;;;;;8.97;8.10;;;;;;;9.06;100.00;94793.41;5018200;28;20684;-68
2021/05/13 06:23:51;;;;;;;8.13;7.37;;;;;;;9.06;100.00;94792.59;5015942;28;20648;-68
2021/05/13 06:26:26;;;;;;;8.77;8.00;;;;;;;9.05;100.00;94799.66;5025570;28;20227;-68
2021/05/13 06:29:01;;;;;;;8.33;7.73;;;;;;;9.11;100.00;94790.16;5007292;28;20708;-68
2021/05/13 06:31:29;;;;;;;7.20;6.63;;;;;;;9.13;100.00;94793.41;5025997;28;20565;-68
2021/05/13 06:33:57;;;;;;;7.50;6.90;;;;;;;9.17;100.00;94794.66;5021886;28;20243;-68
2021/05/13 06:36:25;;;;;;;7.13;6.57;;;;;;;9.24;100.00;94795.50;5019539;28;20468;-68
2021/05/13 06:38:52;;;;;;;5.77;5.37;;;;;;;9.27;100.00;94799.53;5011606;28;20219;-67
2021/05/13 06:41:19;;;;;;;7.43;6.73;;;;;;;9.32;100.00;94797.13;5033514;28;20230;-68
2021/05/13 06:43:47;;;;;;;8.67;8.07;;;;;;;9.35;99.45;94797.56;5015533;28;20756;-68
2021/05/13 06:46:14;;;;;;;6.20;5.60;;;;;;;9.41;99.00;94796.75;5024496;28;20220;-68
2021/05/13 06:48:44;;;;;;;5.93;5.47;;;;;;;9.46;98.97;94800.63;5017493;28;20733;-68
2021/05/13 06:51:11;;;;;;;7.13;6.60;;;;;;;9.51;98.88;94795.56;5020548;28;20659;-68
2021/05/13 06:53:39;;;;;;;6.97;6.33;;;;;;;9.59;98.51;94792.75;5019400;28;20282;-68
2021/05/13 06:56:06;;;;;;;8.23;6.80;;;;;;;9.60;98.62;94795.22;5017778;28;20222;-68
2021/05/13 06:58:34;;;;;;;6.57;6.03;;;;;;;9.59;98.73;94792.75;5006482;28;20309;-67
2021/05/13 07:01:01;;;;;;;6.03;5.53;;;;;;;9.65;98.49;94795.41;5016206;28;20274;-68
2021/05/13 07:03:28;;;;;;;7.23;6.53;;;;;;;9.65;98.57;94794.59;5020937;28;20753;-67
2021/05/13 07:05:57;;;;;;;7.43;6.73;;;;;;;9.64;98.67;94795.63;5006712;28;20601;-68
2021/05/13 07:08:24;;;;;;;10.97;9.90;;;;;;;9.65;98.10;94787.50;5006837;28;20760;-68
2021/05/13 07:10:51;;;;;;;7.33;6.77;;;;;;;9.52;98.38;94786.69;5018978;28;20318;-69
2021/05/13 07:13:19;;;;;;;7.43;6.83;;;;;;;9.69;98.66;94793.19;5015830;28;20236;-68
2021/05/13 07:15:46;;;;;;;8.40;6.60;;;;;;;9.82;98.87;94782.69;5009709;28;20248;-68
2021/05/13 07:18:14;;;;;;;7.57;6.77;;;;;;;9.87;98.34;94787.34;5021992;28;20244;-68
2021/05/13 07:20:43;;;;;;;7.30;6.70;;;;;;;10.07;98.84;94784.75;5015955;28;20569;-67
2021/05/13 07:23:11;;;;;;;9.13;6.90;;;;;;;10.05;97.34;94792.81;5020097;28;20878;-68
2021/05/13 07:25:40;;;;;;;8.13;7.27;;;;;;;10.08;96.96;94791.63;5017047;28;20229;-68
2021/05/13 07:28:08;;;;;;;5.83;5.43;;;;;;;10.10;96.41;94787.78;5008221;28;20275;-68
2021/05/13 07:30:35;;;;;;;7.37;6.67;;;;;;;10.13;96.35;94776.00;5020594;28;20275;-68
2021/05/13 07:33:03;;;;;;;7.20;5.50;;;;;;;10.34;96.63;94781.13;5005311;28;20229;-68
2021/05/13 07:35:31;;;;;;;6.70;6.07;;;;;;;10.54;95.72;94770.56;5011614;28;20752;-68
2021/05/13 07:37:58;;;;;;;6.07;5.67;;;;;;;10.85;95.49;94772.50;5021831;28;20264;-68
2021/05/13 07:40:28;;;;;;;7.97;6.40;;;;;;;11.05;93.75;94783.00;5018746;28;20234;-68
2021/05/13 07:42:56;;;;;;;6.40;5.90;;;;;;;11.27;93.72;94775.63;5009132;28;20234;-68
2021/05/13 07:45:24;;;;;;;7.67;6.83;;;;;;;11.31;91.54;94766.25;5026965;28;20742;-68
2021/05/13 07:47:52;;;;;;;5.63;5.33;;;;;;;11.52;91.35;94773.91;5016973;28;20249;-68
2021/05/13 07:50:21;;;;;;;4.87;4.57;;;;;;;11.79;90.12;94763.16;5021744;28;20284;-68
2021/05/13 07:52:49;;;;;;;5.13;4.83;;;;;;;11.90;89.74;94755.41;5013611;28;20246;-68
2021/05/13 07:55:17;;;;;;;5.83;5.33;;;;;;;11.87;89.49;94760.28;5013734;28;20273;-67
2021/05/13 07:57:47;;;;;;;5.70;5.30;;;;;;;11.79;86.43;94757.88;5019046;28;20305;-68
2021/05/13 08:00:15;;;;;;;4.67;4.40;;;;;;;11.73;88.12;94750.81;5010385;28;20284;-68
2021/05/13 08:02:43;;;;;;;3.37;3.13;;;;;;;11.85;86.54;94752.56;5014026;28;20228;-68
2021/05/13 08:05:11;;;;;;;4.97;4.67;;;;;;;11.68;88.96;94748.78;5008721;28;20250;-69
2021/05/13 08:07:39;;;;;;;5.47;4.27;;;;;;;11.66;87.04;94759.56;5007580;28;20303;-69
2021/05/13 08:10:07;;;;;;;5.63;3.97;;;;;;;11.62;88.18;94747.00;5011340;28;20286;-69
2021/05/13 08:12:35;;;;;;;3.40;3.10;;;;;;;11.82;89.24;94758.31;5011637;28;20233;-68
2021/05/13 08:15:05;;;;;;;5.50;5.07;;;;;;;11.80;86.46;94748.97;5014173;28;20231;-68
2021/05/13 08:17:33;;;;;;;6.23;4.27;;;;;;;12.15;88.07;94747.47;5019622;28;20719;-67
2021/05/13 08:20:01;;;;;;;5.23;3.57;;;;;;;12.40;86.89;94738.72;5013472;28;20229;-68
2021/05/13 08:22:28;;;;;;;4.90;3.47;;;;;;;12.61;86.92;94750.72;5019146;28;20715;-68
2021/05/13 08:24:55;;;;;;;4.53;4.23;;;;;;;12.87;87.74;94749.66;5012553;28;20282;-67
2021/05/13 08:27:23;;;;;;;4.90;4.50;;;;;;;12.89;85.85;94747.59;5012611;28;20231;-67
2021/05/13 08:29:50;;;;;;;3.43;3.10;;;;;;;12.86;84.00;94740.09;5020228;28;20255;-68
2021/05/13 08:32:19;;;;;;;32.10;4.30;;;;;;;13.00;83.02;94745.03;5019993;28;20467;-68
2021/05/13 08:34:47;;;;;;;2.40;2.20;;;;;;;12.75;82.92;94745.09;5015379;28;20224;-68
2021/05/13 08:37:14;;;;;;;4.07;3.23;;;;;;;12.97;83.39;94742.00;5018628;28;20310;-69
2021/05/13 08:39:41;;;;;;;3.10;2.90;;;;;;;12.76;81.40;94743.25;5018486;28;20649;-67
2021/05/13 08:42:09;;;;;;;7.23;5.63;;;;;;;13.10;83.21;94736.56;5011221;28;20251;-68
2021/05/13 08:44:36;;;;;;;5.90;2.67;;;;;;;13.46;80.90;94742.91;5022203;28;20259;-68
2021/05/13 08:47:05;;;;;;;3.50;3.33;;;;;;;13.90;81.21;94731.88;5000867;28;20254;-68
2021/05/13 08:49:36;;;;;;;5.03;4.13;;;;;;;14.28;79.02;94735.97;5005306;28;20251;-68
2021/05/13 08:52:05;;;;;;;4.87;4.43;;;;;;;14.33;77.85;94733.41;5011820;28;22193;-71
2021/05/13 08:54:32;;;;;;;3.70;3.50;;;;;;;14.25;76.87;94731.09;5018900;28;20778;-69
2021/05/13 08:57:00;;;;;;;5.70;3.97;;;;;;;14.26;79.43;94730.06;5020189;28;20251;-69
2021/05/13 08:59:28;;;;;;;3.93;3.00;;;;;;;14.29;77.25;94723.50;5016895;28;20760;-69
2021/05/13 09:01:58;;;;;;;8.13;5.13;;;;;;;14.26;78.34;94727.41;5016493;28;20262;-69
2021/05/13 09:04:38;;;;;;;2.67;2.47;;;;;;;14.39;75.50;94724.56;5006821;28;20236;-68
2021/05/13 09:07:13;;;;;;;2.93;2.73;;;;;;;14.69;78.19;94721.00;5011288;28;20244;-68
2021/05/13 09:09:58;;;;;;;8.63;4.37;;;;;;;13.83;76.45;94728.50;5018669;28;20216;-68
2021/05/13 09:12:27;;;;;;;3.40;2.87;;;;;;;13.48;75.88;94724.91;5011440;28;20217;-68
2021/05/13 09:14:59;;;;;;;4.27;3.23;;;;;;;13.84;76.66;94718.69;5005144;28;20232;-69
2021/05/13 09:17:28;;;;;;;3.40;3.10;;;;;;;14.40;75.58;94712.09;5006718;28;20283;-69
2021/05/13 09:19:57;;;;;;;3.90;3.60;;;;;;;14.37;76.86;94702.75;5018920;28;21470;-71
2021/05/13 09:22:26;;;;;;;6.73;2.67;;;;;;;13.92;76.83;94708.56;5011519;28;20733;-68
2021/05/13 09:24:57;;;;;;;7.93;4.10;;;;;;;13.58;77.17;94709.28;5023504;28;20636;-69
2021/05/13 09:27:27;;;;;;;8.17;5.40;;;;;;;13.97;76.76;94702.56;5022169;28;20569;-69
2021/05/13 09:30:08;;;;;;;5.43;3.87;;;;;;;14.77;74.27;94702.88;5019487;28;20322;-69
2021/05/13 09:32:36;;;;;;;3.17;2.87;;;;;;;15.07;71.49;94708.00;5022222;28;20243;-68
2021/05/13 09:35:07;;;;;;;10.87;2.97;;;;;;;15.00;69.59;94701.22;5021414;28;20220;-70
2021/05/13 09:37:39;;;;;;;4.30;3.90;;;;;;;14.90;73.03;94696.47;5019735;28;20215;-69
2021/05/13 09:40:08;;;;;;;4.27;3.60;;;;;;;13.97;79.64;94707.88;5013306;28;20539;-72
2021/05/13 09:42:36;;;;;;;1.80;1.67;;;;;;;13.42;81.02;94708.06;5012326;28;20294;-69
2021/05/13 09:45:05;;;;;;;2.33;2.23;;;;;;;12.95;80.01;94707.00;5023955;28;20239;-68
2021/05/13 09:47:33;;;;;;;2.33;2.13;;;;;;;12.60;82.87;94704.94;5023659;28;20216;-70
2021/05/13 09:50:08;;;;;;;2.13;2.03;;;;;;;12.53;83.12;94702.38;5016434;28;20227;-69
2021/05/13 09:52:45;;;;;;;7.23;2.53;;;;;;;12.64;83.45;94706.13;5019176;28;20243;-69
2021/05/13 09:55:31;;;;;;;2.17;2.00;;;;;;;12.81;83.31;94704.50;5018574;28;20307;-69
2021/05/13 09:58:02;;;;;;;2.67;2.10;;;;;;;13.14;81.41;94705.94;5017168;28;20278;-68
2021/05/13 10:00:48;;;;;;;2.37;1.90;;;;;;;13.37;79.51;94698.16;5020126;28;20636;-69
2021/05/13 10:03:17;;;;;;;2.43;2.23;;;;;;;13.42;80.35;94700.13;5013098;28;20361;-69
2021/05/13 10:05:48;;;;;;;3.20;2.00;;;;;;;13.34;78.40;94695.13;5017517;28;20604;-69
2021/05/13 10:08:16;;;;;;;2.53;1.97;;;;;;;13.48;78.21;94693.13;5011356;28;20278;-68
2021/05/13 10:10:45;;;;;;;5.03;3.47;;;;;;;13.62;79.19;94694.53;5017865;28;21362;-69
2021/05/13 10:13:16;;;;;;;2.57;2.37;;;;;;;13.76;78.56;94685.34;5016391;28;20285;-69
2021/05/13 10:15:43;;;;;;;4.40;2.83;;;;;;;13.75;78.74;94678.44;5022323;28;20250;-69
2021/05/13 10:18:19;;;;;;;2.67;2.47;;;;;;;13.82;77.63;94681.00;5013628;28;20224;-69
2021/05/13 10:20:52;;;;;;;2.27;2.17;;;;;;;13.96;78.45;94669.13;5020723;28;20222;-70
2021/05/13 10:23:20;;;;;;;2.73;2.63;;;;;;;14.34;77.41;94676.66;5016222;28;20312;-68
2021/05/13 10:25:48;;;;;;;3.57;3.10;;;;;;;14.75;77.30;94670.44;5016290;28;20224;-69
2021/05/13 10:28:17;;;;;;;2.40;2.20;;;;;;;15.14;75.68;94661.91;5018548;28;20315;-69
2021/05/13 10:30:58;;;;;;;2.50;2.40;;;;;;;15.39;74.18;94665.03;5015026;28;20285;-68
2021/05/13 10:33:26;;;;;;;2.43;2.33;;;;;;;15.37;73.97;94661.81;5021920;28;20314;-70
2021/05/13 10:36:06;;;;;;;4.60;4.17;;;;;;;15.18;73.22;94663.03;5012145;28;20216;-69
2021/05/13 10:38:39;;;;;;;3.20;3.00;;;;;;;14.99;74.52;94660.53;5019171;28;20496;-69
2021/05/13 10:41:41;;;;;;;5.27;3.43;;;;;;;14.92;75.01;94667.06;5024731;28;20220;-70
2021/05/13 10:44:35;;;;;;;2.23;2.10;;;;;;;14.56;72.65;94660.19;5019162;28;20278;-68
2021/05/13 10:47:04;;;;;;;3.33;3.03;;;;;;;14.29;76.41;94662.47;5018351;28;20307;-69
2021/05/13 10:49:45;;;;;;;3.50;1.87;;;;;;;14.14;75.81;94647.81;5015671;28;20231;-69
2021/05/13 10:52:38;;;;;;;4.37;3.97;;;;;;;13.94;76.89;94656.09;5014786;28;20232;-69
2021/05/13 10:55:08;;;;;;;2.53;2.33;;;;;;;14.37;78.23;94659.47;5010806;28;20511;-69
2021/05/13 10:57:52;;;;;;;2.33;2.13;;;;;;;14.42;80.88;94652.41;5010802;28;20235;-68
2021/05/13 11:00:24;;;;;;;3.10;2.80;;;;;;;14.52;79.95;94647.34;5020869;28;20247;-69
2021/05/13 11:02:52;;;;;;;1.77;1.67;;;;;;;14.66;80.28;94652.44;5010252;28;20232;-69
2021/05/13 11:05:43;;;;;;;0.97;0.97;;;;;;;14.78;79.02;94650.56;5007176;28;20769;-69
2021/05/13 11:08:46;;;;;;;1.60;1.50;;;;;;;14.95;79.52;94646.13;5013268;28;20239;-69
2021/05/13 11:11:13;;;;;;;3.47;2.30;;;;;;;14.98;77.63;94644.84;5037619;28;20227;-69
2021/05/13 11:13:46;;;;;;;2.17;1.97;;;;;;;14.77;73.84;94643.63;5026105;28;20522;-69
2021/05/13 11:16:55;;;;;;;1.73;1.60;;;;;;;14.79;73.68;94636.22;5026314;28;20755;-69
2021/05/13 11:19:25;;;;;;;1.97;1.87;;;;;;;14.81;75.40;94631.47;5018038;28;20396;-69
2021/05/13 11:22:02;;;;;;;2.20;1.77;;;;;;;15.00;75.66;94632.16;5013192;28;20256;-69
2021/05/13 11:24:38;;;;;;;1.40;1.30;;;;;;;15.23;75.10;94628.56;5015353;28;20216;-69
2021/05/13 11:27:08;;;;;;;1.00;0.90;;;;;;;15.55;70.95;94616.41;5019773;28;20337;-69
2021/05/13 11:29:50;;;;;;;2.77;0.97;;;;;;;16.15;75.16;94618.44;5018140;28;20289;-69
2021/05/13 11:32:19;;;;;;;1.03;0.50;;;;;;;16.72;72.28;94612.84;5020871;28;20223;-70
2021/05/13 11:34:47;;;;;;;1.03;0.50;;;;;;;17.14;68.12;94612.28;5011460;28;20242;-69
2021/05/13 11:37:33;;;;;;;0.73;0.73;;;;;;;17.54;67.82;94608.41;5017647;28;20777;-69
2021/05/13 11:40:22;;;;;;;1.17;0.30;;;;;;;17.90;66.51;94613.03;5004006;28;20796;-66
2021/05/13 11:42:50;;;;;;;1.00;0.83;;;;;;;18.21;66.18;94613.28;5012337;28;20246;-67